Time;durP1;ratioP1;P1;durP2;ratioP2;P2;SDS_P1;SDS_P2;PMS_P1;PMS_P2;Temp;Humidity;BMP_temperature;BMP_pressure;BME280_temperature;BME280_humidity;BME280_pressure;Samples;Min_cycle;Max_cycle;Signal;HPM_P1;HPM_P2
2023/07/29 00:01:07;;;;;;;3.85;2.10;;;;;;;20.78;43.40;93755.63;5067662;28;20082;-72
2023/07/29 00:03:32;;;;;;;2.92;2.10;;;;;;;20.83;42.87;93753.34;5066396;28;20028;-72
2023/07/29 00:05:58;;;;;;;2.58;2.03;;;;;;;20.84;42.75;93759.53;5066661;28;20115;-72
2023/07/29 00:08:23;;;;;;;4.90;2.33;;;;;;;20.68;43.02;93757.13;5068625;28;20451;-74
2023/07/29 00:10:49;;;;;;;3.63;2.38;;;;;;;20.68;42.95;93764.47;5065672;28;20052;-73
2023/07/29 00:13:14;;;;;;;3.00;2.17;;;;;;;20.56;43.07;93763.63;5067400;28;20513;-73
2023/07/29 00:15:39;;;;;;;2.67;2.38;;;;;;;20.55;43.08;93774.81;5066330;28;20935;-73
2023/07/29 00:18:05;;;;;;;1.98;1.77;;;;;;;20.44;43.25;93747.72;5073620;28;20021;-73
2023/07/29 00:20:30;;;;;;;4.22;2.10;;;;;;;20.60;43.04;93771.75;5065708;28;20052;-72
2023/07/29 00:22:57;;;;;;;1.95;1.73;;;;;;;20.53;43.09;93761.66;5065943;28;20113;-72
2023/07/29 00:25:23;;;;;;;3.25;2.00;;;;;;;20.47;43.12;93752.41;5066340;28;20502;-73
2023/07/29 00:27:48;;;;;;;4.20;2.38;;;;;;;20.50;43.07;93761.66;5059101;28;20036;-72
2023/07/29 00:30:14;;;;;;;2.72;2.00;;;;;;;20.44;42.84;93755.81;5066309;28;20028;-72
2023/07/29 00:32:39;;;;;;;3.60;2.20;;;;;;;20.40;43.11;93746.94;5066051;28;20103;-72
2023/07/29 00:35:05;;;;;;;3.35;2.85;;;;;;;20.40;42.93;93752.34;5067052;28;20032;-72
2023/07/29 00:37:31;;;;;;;3.35;2.22;;;;;;;20.36;43.26;93751.53;5067078;28;20064;-72
2023/07/29 00:39:57;;;;;;;2.95;2.35;;;;;;;20.40;42.97;93754.25;5066960;28;20123;-73
2023/07/29 00:42:23;;;;;;;3.22;2.25;;;;;;;20.39;42.92;93744.59;5065456;28;20283;-72
2023/07/29 00:44:48;;;;;;;3.30;2.33;;;;;;;20.45;42.79;93762.78;5076168;28;20512;-71
2023/07/29 00:47:15;;;;;;;5.28;2.28;;;;;;;20.44;43.03;93757.75;5068357;28;20043;-73
2023/07/29 00:49:42;;;;;;;2.45;2.10;;;;;;;20.36;42.96;93750.75;5069035;28;20036;-72
2023/07/29 00:52:08;;;;;;;4.95;2.67;;;;;;;20.30;43.03;93736.84;5068653;28;20032;-73
2023/07/29 00:54:33;;;;;;;3.13;2.38;;;;;;;20.25;42.98;93747.97;5069309;28;20078;-73
2023/07/29 00:56:58;;;;;;;2.40;2.03;;;;;;;20.31;43.08;93754.59;5067505;28;20028;-72
2023/07/29 00:59:25;;;;;;;3.35;2.63;;;;;;;20.08;43.36;93717.00;5067812;28;20463;-73
2023/07/29 01:01:50;;;;;;;2.80;2.47;;;;;;;20.19;43.40;93741.38;5068255;28;20130;-72
2023/07/29 01:04:16;;;;;;;2.45;2.05;;;;;;;20.20;43.10;93745.63;5067876;28;20040;-72
2023/07/29 01:06:57;;;;;;;3.97;2.28;;;;;;;20.11;43.31;93751.34;5068173;28;20045;-72
2023/07/29 01:09:35;;;;;;;2.47;2.28;;;;;;;19.97;43.63;93753.16;5066819;28;20056;-72
2023/07/29 01:12:09;;;;;;;2.35;2.00;;;;;;;19.90;43.81;93739.59;5065044;28;20566;-72
2023/07/29 01:15:16;;;;;;;3.45;2.80;;;;;;;20.02;43.71;93742.00;5066520;28;20032;-72
2023/07/29 01:18:06;;;;;;;2.88;2.53;;;;;;;20.06;43.64;93732.00;5070847;28;20431;-73
2023/07/29 01:20:38;;;;;;;3.22;2.33;;;;;;;19.99;43.71;93737.38;5066914;28;20037;-71
2023/07/29 01:23:04;;;;;;;4.35;2.40;;;;;;;19.79;44.14;93722.56;5074261;28;20371;-73
2023/07/29 01:25:29;;;;;;;5.57;2.80;;;;;;;19.86;44.43;93746.88;5068828;28;20047;-73
2023/07/29 01:27:55;;;;;;;8.68;2.67;;;;;;;19.79;44.64;93749.53;5065475;28;20028;-73
2023/07/29 01:30:25;;;;;;;3.35;2.50;;;;;;;19.76;44.77;93745.63;5068692;28;20032;-73
2023/07/29 01:33:22;;;;;;;3.63;2.85;;;;;;;19.78;44.44;93747.97;5066703;28;20060;-71
2023/07/29 01:35:52;;;;;;;4.55;2.92;;;;;;;19.69;44.66;93751.78;5061250;28;20048;-72
2023/07/29 01:38:41;;;;;;;3.50;2.70;;;;;;;19.53;45.08;93735.03;5084920;28;20517;-71
2023/07/29 01:41:08;;;;;;;2.72;2.53;;;;;;;19.60;44.81;93743.19;5063765;28;20036;-72
2023/07/29 01:43:39;;;;;;;2.80;2.55;;;;;;;19.59;45.03;93746.28;5064328;28;20050;-72
2023/07/29 01:46:04;;;;;;;3.85;2.50;;;;;;;19.61;44.48;93750.13;5066758;28;20555;-71
2023/07/29 01:48:31;;;;;;;3.22;2.80;;;;;;;19.55;44.77;93735.44;5065975;28;20041;-73
2023/07/29 01:50:57;;;;;;;3.72;2.88;;;;;;;19.65;44.68;93744.78;5068700;28;20028;-73
2023/07/29 01:53:22;;;;;;;3.05;2.58;;;;;;;19.50;44.45;93726.91;5066697;28;20096;-72
2023/07/29 01:55:48;;;;;;;3.42;2.70;;;;;;;19.59;44.63;93741.66;5065906;28;20097;-73
2023/07/29 01:58:14;;;;;;;4.38;2.45;;;;;;;19.53;44.80;93745.81;5066777;28;20029;-73
2023/07/29 02:00:39;;;;;;;2.83;2.45;;;;;;;19.43;44.52;93719.50;5060166;28;20041;-73
2023/07/29 02:03:05;;;;;;;3.03;2.55;;;;;;;19.46;44.79;93740.34;5058797;28;20374;-73
2023/07/29 02:05:30;;;;;;;4.00;2.53;;;;;;;19.45;44.86;93746.13;5064138;28;20508;-72
2023/07/29 02:07:56;;;;;;;3.03;2.22;;;;;;;19.28;45.24;93733.97;5066644;28;20040;-72
2023/07/29 02:10:21;;;;;;;4.65;3.35;;;;;;;19.29;45.03;93727.44;5064547;28;20051;-72
2023/07/29 02:12:47;;;;;;;3.95;3.28;;;;;;;19.33;45.12;93739.81;5067685;28;20123;-73
2023/07/29 02:15:12;;;;;;;6.05;2.55;;;;;;;19.31;45.23;93731.31;5067436;28;20020;-72
2023/07/29 02:17:38;;;;;;;8.57;3.10;;;;;;;19.24;45.59;93733.94;5065794;28;20175;-72
2023/07/29 02:20:04;;;;;;;8.55;3.10;;;;;;;19.39;46.15;93747.56;5066185;28;20036;-73
2023/07/29 02:22:29;;;;;;;4.07;2.70;;;;;;;19.29;45.77;93752.50;5067270;28;20589;-72
2023/07/29 02:24:55;;;;;;;4.38;2.78;;;;;;;19.15;46.20;93748.88;5067299;28;20031;-73
2023/07/29 02:27:21;;;;;;;6.53;3.10;;;;;;;19.23;45.73;93753.19;5065231;28;20032;-71
2023/07/29 02:29:46;;;;;;;3.15;2.75;;;;;;;19.13;45.94;93756.53;5067414;28;20498;-72
2023/07/29 02:32:11;;;;;;;4.78;3.35;;;;;;;19.08;46.10;93754.94;5065012;28;20051;-73
2023/07/29 02:34:37;;;;;;;6.47;3.08;;;;;;;19.07;46.13;93755.31;5067527;28;20056;-72
2023/07/29 02:37:02;;;;;;;4.80;3.33;;;;;;;19.03;46.32;93754.50;5062948;28;20194;-72
2023/07/29 02:39:28;;;;;;;4.32;3.65;;;;;;;19.13;45.89;93757.31;5068094;28;20054;-72
2023/07/29 02:41:55;;;;;;;4.10;3.25;;;;;;;18.98;46.18;93747.50;5065615;28;20125;-71
2023/07/29 02:44:20;;;;;;;3.20;2.90;;;;;;;19.08;46.13;93754.16;5068527;28;20033;-72
2023/07/29 02:46:46;;;;;;;5.80;3.70;;;;;;;19.01;45.85;93732.53;5063765;28;20410;-72
2023/07/29 02:49:11;;;;;;;4.80;3.65;;;;;;;19.03;45.62;93743.72;5066625;28;20437;-72
2023/07/29 02:51:36;;;;;;;6.63;3.60;;;;;;;19.02;45.99;93739.47;5065450;28;20028;-72
2023/07/29 02:54:02;;;;;;;4.50;3.70;;;;;;;19.04;46.43;93747.97;5069998;28;20041;-72
2023/07/29 02:56:28;;;;;;;4.40;4.00;;;;;;;19.13;46.13;93751.13;5067237;28;20058;-72
2023/07/29 02:58:53;;;;;;;5.72;2.90;;;;;;;19.00;46.07;93733.66;5066757;28;20399;-72
2023/07/29 03:01:19;;;;;;;4.47;3.20;;;;;;;19.05;46.11;93752.22;5064760;28;20119;-72
2023/07/29 03:03:44;;;;;;;5.90;3.72;;;;;;;19.09;46.28;93758.41;5067901;28;20028;-72
2023/07/29 03:06:11;;;;;;;3.53;2.95;;;;;;;19.03;46.31;93757.19;5066909;28;20463;-73
2023/07/29 03:08:36;;;;;;;10.25;3.03;;;;;;;18.88;46.27;93754.31;5066169;28;20114;-71
2023/07/29 03:11:20;;;;;;;3.85;3.33;;;;;;;18.86;46.77;93759.31;5062031;28;20570;-72
2023/07/29 03:13:46;;;;;;;4.75;3.40;;;;;;;18.88;46.90;93770.50;5066722;28;20363;-72
2023/07/29 03:16:15;;;;;;;4.68;3.30;;;;;;;18.85;46.74;93768.53;5067086;28;20043;-72
2023/07/29 03:18:44;;;;;;;7.13;3.80;;;;;;;18.79;47.21;93774.59;5065706;28;20056;-71
2023/07/29 03:21:10;;;;;;;4.35;3.00;;;;;;;18.83;47.05;93768.13;5057878;28;20780;-72
2023/07/29 03:23:36;;;;;;;11.10;4.50;;;;;;;18.90;46.89;93764.75;5067040;28;20048;-71
2023/07/29 03:26:09;;;;;;;4.05;3.25;;;;;;;18.87;46.72;93768.94;5064945;28;20036;-72
2023/07/29 03:28:36;;;;;;;9.65;3.08;;;;;;;18.79;47.02;93770.00;5063067;28;20397;-71
2023/07/29 03:31:01;;;;;;;8.60;3.42;;;;;;;18.71;47.24;93765.66;5065645;28;20479;-72
2023/07/29 03:33:27;;;;;;;8.65;3.20;;;;;;;18.79;47.20;93770.00;5068595;28;20028;-72
2023/07/29 03:35:53;;;;;;;7.30;3.22;;;;;;;18.69;47.32;93757.13;5065345;28;20028;-72
2023/07/29 03:38:18;;;;;;;5.55;2.78;;;;;;;18.75;47.41;93769.16;5067918;28;20640;-72
2023/07/29 03:40:44;;;;;;;6.93;2.90;;;;;;;18.62;47.79;93759.75;5066247;28;20438;-71
2023/07/29 03:43:10;;;;;;;8.35;3.58;;;;;;;18.58;47.79;93753.50;5065367;28;20044;-74
2023/07/29 03:45:36;;;;;;;12.32;3.53;;;;;;;18.68;47.93;93763.66;5068788;28;20029;-71
2023/07/29 03:48:02;;;;;;;9.70;3.28;;;;;;;18.61;48.07;93765.50;5066428;28;20040;-74
2023/07/29 03:50:28;;;;;;;7.68;3.72;;;;;;;18.61;48.67;93766.25;5065434;28;20265;-72
2023/07/29 03:52:54;;;;;;;11.88;5.53;;;;;;;18.63;48.63;93772.03;5066972;28;20158;-73
2023/07/29 03:55:20;;;;;;;15.85;3.95;;;;;;;18.46;48.63;93741.06;5066707;28;20522;-72
2023/07/29 03:57:45;;;;;;;9.00;3.60;;;;;;;18.56;48.98;93755.81;5069202;28;20037;-72
2023/07/29 04:00:11;;;;;;;9.88;3.72;;;;;;;18.59;48.98;93765.84;5068005;28;20970;-72
2023/07/29 04:02:37;;;;;;;7.22;3.15;;;;;;;18.59;49.16;93765.84;5077311;28;20044;-73
2023/07/29 04:05:04;;;;;;;7.15;4.05;;;;;;;18.54;49.03;93744.63;5068263;28;20067;-72
2023/07/29 04:07:30;;;;;;;5.50;4.15;;;;;;;18.68;48.56;93757.47;5070856;28;20529;-73
2023/07/29 04:09:55;;;;;;;7.50;4.07;;;;;;;18.76;48.00;93761.88;5067547;28;20519;-72
2023/07/29 04:12:22;;;;;;;8.55;4.47;;;;;;;18.76;47.58;93764.56;5069682;28;20020;-73
2023/07/29 04:14:48;;;;;;;9.20;5.03;;;;;;;18.96;47.41;93778.69;5067204;28;20402;-73
2023/07/29 04:17:13;;;;;;;5.38;4.55;;;;;;;18.97;47.52;93774.84;5070175;28;20497;-72
2023/07/29 04:19:38;;;;;;;5.55;4.13;;;;;;;18.97;47.79;93774.84;5068863;28;20051;-71
2023/07/29 04:22:04;;;;;;;9.05;4.95;;;;;;;19.11;47.59;93777.69;5069606;28;20409;-72
2023/07/29 04:24:29;;;;;;;5.28;4.55;;;;;;;19.11;47.58;93775.00;5068329;28;20405;-72
2023/07/29 04:26:55;;;;;;;7.90;4.65;;;;;;;19.07;47.85;93774.94;5070746;28;20043;-74
2023/07/29 04:29:22;;;;;;;6.80;4.55;;;;;;;19.18;47.74;93777.78;5066626;28;20051;-71
2023/07/29 04:31:48;;;;;;;10.68;5.00;;;;;;;19.09;47.84;93761.13;5078670;28;20063;-72
2023/07/29 04:34:13;;;;;;;9.25;4.68;;;;;;;19.09;47.58;93759.19;5065867;28;20460;-73
2023/07/29 04:36:38;;;;;;;11.95;5.05;;;;;;;19.32;47.29;93780.63;5072616;28;20024;-72
2023/07/29 04:39:04;;;;;;;6.50;4.68;;;;;;;19.41;46.15;93783.81;5067787;28;20588;-72
2023/07/29 04:41:29;;;;;;;9.88;4.97;;;;;;;19.46;46.71;93791.59;5069792;28;20050;-72
2023/07/29 04:43:54;;;;;;;5.18;4.68;;;;;;;19.52;46.40;93779.34;5068181;28;20040;-73
2023/07/29 04:46:20;;;;;;;9.77;5.57;;;;;;;19.49;46.60;93774.69;5071503;28;20040;-72
2023/07/29 04:48:45;;;;;;;12.98;4.35;;;;;;;19.65;46.06;93782.56;5066060;28;20047;-71
2023/07/29 04:51:11;;;;;;;8.63;5.38;;;;;;;19.61;45.54;93777.09;5069962;28;20020;-73
2023/07/29 04:53:37;;;;;;;6.65;4.95;;;;;;;19.66;45.88;93784.09;5068180;28;20049;-73
2023/07/29 04:56:03;;;;;;;5.35;4.43;;;;;;;19.67;45.59;93791.81;5067558;28;20609;-71
2023/07/29 04:58:29;;;;;;;14.68;6.38;;;;;;;19.62;45.95;93785.97;5066775;28;20040;-72
2023/07/29 05:00:56;;;;;;;11.05;5.20;;;;;;;19.70;45.96;93795.72;5066934;28;20027;-73
2023/07/29 05:03:21;;;;;;;6.22;4.53;;;;;;;19.82;45.88;93791.94;5073539;28;20501;-71
2023/07/29 05:05:46;;;;;;;6.90;5.63;;;;;;;19.49;45.32;93747.72;5070929;28;20052;-72
2023/07/29 05:08:12;;;;;;;5.97;5.38;;;;;;;19.71;46.35;93791.84;5065792;28;20047;-73
2023/07/29 05:10:37;;;;;;;6.07;5.00;;;;;;;19.78;47.00;93810.03;5071910;28;20552;-72
2023/07/29 05:13:03;;;;;;;6.95;5.60;;;;;;;19.81;46.13;93795.78;5068373;28;20331;-72
2023/07/29 05:15:28;;;;;;;7.28;5.68;;;;;;;19.86;45.38;93792.75;5067532;28;20032;-72
2023/07/29 05:17:53;;;;;;;8.00;5.63;;;;;;;19.87;45.55;93792.41;5070452;28;20141;-71
2023/07/29 05:20:19;;;;;;;9.23;6.03;;;;;;;20.06;45.83;93813.78;5067770;28;20441;-72
2023/07/29 05:22:44;;;;;;;11.25;5.65;;;;;;;19.78;44.71;93796.53;5065576;28;20040;-71
2023/07/29 05:25:10;;;;;;;11.32;6.63;;;;;;;19.94;44.96;93811.38;5068098;28;20036;-73
2023/07/29 05:27:35;;;;;;;11.27;6.32;;;;;;;20.03;45.56;93811.81;5070524;28;20043;-72
2023/07/29 05:30:01;;;;;;;9.77;5.15;;;;;;;20.08;45.09;93811.50;5065696;28;20082;-73
2023/07/29 05:32:26;;;;;;;9.63;4.80;;;;;;;20.12;45.00;93808.81;5067976;28;20649;-72
2023/07/29 05:34:51;;;;;;;13.20;5.78;;;;;;;20.22;45.12;93810.84;5066084;28;20063;-72
2023/07/29 05:37:17;;;;;;;8.68;4.90;;;;;;;20.27;45.62;93802.41;5067913;28;20032;-72
2023/07/29 05:39:42;;;;;;;9.63;6.70;;;;;;;20.25;45.41;93801.22;5067411;28;20863;-72
2023/07/29 05:42:08;;;;;;;13.23;5.85;;;;;;;20.24;44.67;93808.53;5067232;28;20043;-73
2023/07/29 05:44:33;;;;;;;8.63;5.75;;;;;;;20.41;45.02;93818.72;5069396;28;20498;-72
2023/07/29 05:46:58;;;;;;;10.85;5.38;;;;;;;20.50;45.11;93823.78;5065754;28;20363;-72
2023/07/29 05:49:24;;;;;;;8.45;6.60;;;;;;;20.59;44.36;93808.81;5066953;28;20047;-73
2023/07/29 05:51:51;;;;;;;9.95;4.95;;;;;;;20.66;44.85;93812.72;5067884;28;20099;-74
2023/07/29 05:54:18;;;;;;;5.53;4.78;;;;;;;20.81;44.28;93817.06;5068982;28;20067;-72
2023/07/29 05:56:43;;;;;;;7.82;5.40;;;;;;;20.91;44.18;93825.25;5067013;28;20487;-71
2023/07/29 05:59:09;;;;;;;8.25;4.70;;;;;;;20.91;44.06;93813.66;5067013;28;20040;-73
2023/07/29 06:01:34;;;;;;;9.80;4.40;;;;;;;21.11;44.00;93816.84;5064853;28;20041;-72
2023/07/29 06:04:00;;;;;;;9.60;4.93;;;;;;;21.26;42.64;93834.69;5067383;28;20119;-73
2023/07/29 06:06:26;;;;;;;9.38;4.80;;;;;;;21.13;43.54;93807.19;5064700;28;20020;-72
2023/07/29 06:08:51;;;;;;;11.15;4.53;;;;;;;21.28;43.27;93816.94;5068397;28;20681;-72
2023/07/29 06:11:16;;;;;;;6.32;4.47;;;;;;;21.28;43.88;93819.63;5068431;28;20054;-72
2023/07/29 06:13:42;;;;;;;10.30;4.72;;;;;;;21.35;44.11;93822.38;5066760;28;20066;-73
2023/07/29 06:16:07;;;;;;;7.82;4.50;;;;;;;21.53;43.64;93818.94;5065056;28;20435;-72
2023/07/29 06:18:33;;;;;;;4.20;3.80;;;;;;;21.54;43.45;93807.75;5065471;28;20082;-73
2023/07/29 06:20:58;;;;;;;6.22;4.13;;;;;;;21.70;42.87;93807.44;5070280;28;20032;-74
2023/07/29 06:23:24;;;;;;;4.38;3.92;;;;;;;21.80;42.60;93814.81;5068704;28;20047;-73
2023/07/29 06:25:49;;;;;;;4.53;3.60;;;;;;;21.74;41.86;93814.41;5066284;28;20032;-73
2023/07/29 06:28:14;;;;;;;7.75;4.53;;;;;;;21.84;41.81;93802.81;5067987;28;20251;-72
2023/07/29 06:30:40;;;;;;;6.35;3.90;;;;;;;22.01;41.00;93804.00;5065985;28;20031;-73
2023/07/29 06:33:06;;;;;;;4.57;3.83;;;;;;;21.99;41.90;93792.00;5068405;28;20027;-72
2023/07/29 06:35:31;;;;;;;5.95;4.95;;;;;;;21.92;42.67;93795.47;5066461;28;20086;-73
2023/07/29 06:37:57;;;;;;;5.78;3.95;;;;;;;21.98;42.35;93782.34;5066620;28;20040;-72
2023/07/29 06:40:22;;;;;;;6.88;4.07;;;;;;;22.21;42.25;93790.84;5063740;28;20051;-73
2023/07/29 06:42:47;;;;;;;9.38;3.80;;;;;;;22.11;42.33;93770.72;5067783;28;20028;-72
2023/07/29 06:45:13;;;;;;;6.32;3.42;;;;;;;22.27;41.91;93790.13;5062849;28;20142;-72
2023/07/29 06:47:38;;;;;;;4.15;3.53;;;;;;;22.52;40.79;93795.53;5065116;28;20109;-74
2023/07/29 06:50:04;;;;;;;3.78;2.92;;;;;;;22.60;39.79;93788.91;5062750;28;20036;-73
2023/07/29 06:52:30;;;;;;;3.47;3.17;;;;;;;22.56;40.35;93785.44;5067229;28;20684;-72
2023/07/29 06:54:56;;;;;;;7.40;3.70;;;;;;;22.60;40.95;93788.13;5062119;28;20139;-74
2023/07/29 06:57:21;;;;;;;4.25;3.42;;;;;;;22.64;40.84;93791.63;5067780;28;20024;-73
2023/07/29 06:59:46;;;;;;;6.55;3.65;;;;;;;22.65;39.80;93764.13;5066645;28;20510;-72
2023/07/29 07:02:12;;;;;;;5.70;3.83;;;;;;;22.85;39.76;93780.75;5063820;28;20055;-74
2023/07/29 07:04:37;;;;;;;6.28;3.33;;;;;;;22.97;38.92;93798.56;5066571;28;20117;-73
2023/07/29 07:07:03;;;;;;;5.10;3.45;;;;;;;22.85;39.19;93791.59;5064468;28;20048;-72
2023/07/29 07:09:28;;;;;;;3.67;3.20;;;;;;;22.89;38.73;93797.03;5068301;28;20510;-72
2023/07/29 07:11:53;;;;;;;7.68;3.58;;;;;;;22.77;38.91;93779.22;5066982;28;20030;-73
2023/07/29 07:14:19;;;;;;;6.78;3.45;;;;;;;22.78;38.78;93786.16;5067733;28;20076;-72
2023/07/29 07:16:44;;;;;;;6.07;3.53;;;;;;;22.81;39.11;93785.41;5065421;28;20028;-72
2023/07/29 07:19:11;;;;;;;5.25;3.30;;;;;;;22.84;39.20;93786.53;5067065;28;20075;-72
2023/07/29 07:21:36;;;;;;;4.20;3.38;;;;;;;22.91;39.61;93779.22;5067976;28;20081;-72
2023/07/29 07:24:01;;;;;;;5.45;3.40;;;;;;;22.96;38.63;93789.66;5062815;28;20064;-72
2023/07/29 07:26:27;;;;;;;9.13;3.08;;;;;;;22.93;39.13;93779.56;5065009;28;20048;-72
2023/07/29 07:28:52;;;;;;;8.48;3.63;;;;;;;23.04;39.09;93783.03;5064463;28;20044;-72
2023/07/29 07:31:17;;;;;;;6.85;4.18;;;;;;;23.05;38.86;93787.31;5068122;28;20808;-71
2023/07/29 07:33:43;;;;;;;11.60;3.75;;;;;;;23.01;39.26;93775.69;5069317;28;20127;-72
2023/07/29 07:36:08;;;;;;;3.58;3.28;;;;;;;23.08;39.72;93772.94;5070473;28;20024;-72
2023/07/29 07:38:34;;;;;;;6.00;3.53;;;;;;;23.32;39.17;93781.41;5069239;28;20851;-74
2023/07/29 07:40:59;;;;;;;4.40;3.00;;;;;;;23.37;38.89;93772.81;5070708;28;20462;-72
2023/07/29 07:43:25;;;;;;;4.75;3.38;;;;;;;23.32;39.39;93760.44;5068500;28;20448;-73
2023/07/29 07:45:51;;;;;;;5.50;3.40;;;;;;;23.45;37.71;93775.13;5077410;28;20048;-73
2023/07/29 07:48:16;;;;;;;4.75;3.50;;;;;;;23.48;38.99;93781.69;5069377;28;20020;-72
2023/07/29 07:50:43;;;;;;;4.82;3.30;;;;;;;23.42;39.00;93775.91;5070683;28;20597;-72
2023/07/29 07:53:08;;;;;;;6.70;3.30;;;;;;;23.62;37.45;93783.59;5076482;28;20044;-72
2023/07/29 07:55:34;;;;;;;4.63;4.10;;;;;;;23.63;38.68;93785.91;5068425;28;20426;-72
2023/07/29 07:57:59;;;;;;;4.05;3.38;;;;;;;23.63;38.60;93785.91;5068476;28;20491;-74
2023/07/29 08:00:25;;;;;;;3.92;3.35;;;;;;;23.73;38.55;93787.00;5072774;28;20505;-72
2023/07/29 08:02:54;;;;;;;4.55;3.38;;;;;;;23.84;38.34;93785.78;5059009;28;20774;-72
2023/07/29 08:05:35;;;;;;;4.97;3.33;;;;;;;23.90;37.77;93781.50;5041055;28;20177;-72
2023/07/29 08:08:05;;;;;;;4.93;2.92;;;;;;;23.99;37.94;93784.53;5057950;28;20044;-74
2023/07/29 08:10:32;;;;;;;4.82;3.35;;;;;;;23.88;37.23;93788.47;5059375;28;20071;-73
2023/07/29 08:12:58;;;;;;;3.65;3.03;;;;;;;23.78;37.22;93781.94;5061206;28;20028;-72
2023/07/29 08:15:25;;;;;;;7.95;3.45;;;;;;;23.73;37.83;93790.50;5062355;28;20081;-73
2023/07/29 08:17:50;;;;;;;5.75;3.65;;;;;;;23.69;38.37;93787.03;5062505;28;20028;-72
2023/07/29 08:20:15;;;;;;;6.45;3.53;;;;;;;23.89;37.20;93796.25;5061980;28;20032;-73
2023/07/29 08:22:41;;;;;;;3.88;2.90;;;;;;;23.88;37.01;93797.41;5064693;28;20078;-73
2023/07/29 08:25:08;;;;;;;7.45;3.50;;;;;;;23.83;36.59;93786.19;5064730;28;20308;-73
2023/07/29 08:27:34;;;;;;;4.40;3.47;;;;;;;23.88;36.81;93789.25;5063243;28;20032;-73
2023/07/29 08:30:01;;;;;;;5.47;3.08;;;;;;;23.98;37.17;93782.19;5059774;28;20071;-73
2023/07/29 08:32:27;;;;;;;3.42;2.97;;;;;;;23.97;35.55;93788.81;5065812;28;20071;-72
2023/07/29 08:34:52;;;;;;;3.85;3.20;;;;;;;23.88;35.66;93780.34;5060531;28;20054;-72
2023/07/29 08:37:17;;;;;;;4.38;3.05;;;;;;;24.00;36.63;93785.31;5064206;28;20033;-73
2023/07/29 08:39:43;;;;;;;5.55;3.33;;;;;;;24.04;36.72;93777.91;5063030;28;20031;-73
2023/07/29 08:42:11;;;;;;;3.80;2.83;;;;;;;23.97;35.94;93767.84;5068245;28;20024;-73
2023/07/29 08:44:42;;;;;;;4.63;3.60;;;;;;;24.01;36.45;93779.44;5071833;28;20398;-72
2023/07/29 08:47:07;;;;;;;4.85;3.80;;;;;;;23.85;36.57;93781.91;5068085;28;20035;-74
2023/07/29 08:49:33;;;;;;;7.55;3.92;;;;;;;24.11;35.25;93771.63;5067241;28;20068;-74
2023/07/29 08:51:59;;;;;;;5.22;3.30;;;;;;;24.27;34.61;93775.41;5066387;28;20047;-72
2023/07/29 08:54:25;;;;;;;4.55;3.10;;;;;;;24.31;35.01;93762.56;5071656;28;20026;-73
2023/07/29 08:56:51;;;;;;;6.25;3.00;;;;;;;24.44;34.50;93769.03;5069139;28;20940;-72
2023/07/29 08:59:17;;;;;;;2.90;2.42;;;;;;;24.36;33.33;93753.19;5071174;28;20829;-72
2023/07/29 09:01:43;;;;;;;3.95;1.88;;;;;;;24.34;33.89;93758.28;5065073;28;20988;-74
2023/07/29 09:04:09;;;;;;;2.17;1.85;;;;;;;24.39;33.29;93760.56;5066676;28;20071;-73
2023/07/29 09:06:38;;;;;;;3.08;1.80;;;;;;;24.42;32.38;93759.75;5068537;28;20392;-72
2023/07/29 09:09:04;;;;;;;3.35;1.83;;;;;;;24.47;32.70;93764.75;5067330;28;20584;-73
2023/07/29 09:11:30;;;;;;;4.45;1.38;;;;;;;24.39;31.49;93760.56;5061646;28;20052;-71
2023/07/29 09:13:57;;;;;;;3.00;1.30;;;;;;;24.38;32.21;93753.59;5069337;28;20661;-72
2023/07/29 09:16:24;;;;;;;4.82;2.00;;;;;;;24.37;32.77;93760.19;5064962;28;20536;-72
2023/07/29 09:18:51;;;;;;;4.88;2.17;;;;;;;24.39;33.74;93755.13;5065479;28;20035;-73
2023/07/29 09:21:26;;;;;;;2.22;1.50;;;;;;;24.29;32.03;93753.28;5065598;28;20550;-72
2023/07/29 09:23:52;;;;;;;3.88;1.92;;;;;;;24.36;32.31;93747.78;5068136;28;20028;-72
2023/07/29 09:26:25;;;;;;;3.45;1.50;;;;;;;24.47;34.72;93756.59;5067126;28;20035;-72
2023/07/29 09:28:53;;;;;;;6.70;1.87;;;;;;;24.55;33.41;93749.16;5069180;28;20032;-73
2023/07/29 09:31:21;;;;;;;3.15;1.67;;;;;;;24.51;33.59;93754.63;5067542;28;20536;-72
2023/07/29 09:33:46;;;;;;;5.65;2.15;;;;;;;24.59;33.45;93747.94;5066239;28;20092;-73
2023/07/29 09:36:12;;;;;;;3.85;2.60;;;;;;;24.65;33.16;93746.31;5070209;28;20680;-73
2023/07/29 09:38:38;;;;;;;4.22;2.35;;;;;;;24.66;32.55;93736.22;5064841;28;20036;-72
2023/07/29 09:41:03;;;;;;;5.13;2.22;;;;;;;24.64;33.20;93739.34;5068810;28;20032;-72
2023/07/29 09:43:31;;;;;;;2.55;1.52;;;;;;;24.61;32.66;93740.16;5064848;28;20105;-73
2023/07/29 09:46:01;;;;;;;3.55;1.92;;;;;;;24.60;32.68;93727.72;5067806;28;20047;-73
2023/07/29 09:48:28;;;;;;;3.40;1.30;;;;;;;24.66;31.94;93737.00;5066468;28;20020;-73
2023/07/29 09:50:55;;;;;;;4.18;2.28;;;;;;;24.80;32.80;93731.44;5074994;28;20433;-73
2023/07/29 09:53:28;;;;;;;3.22;1.70;;;;;;;24.98;32.86;93736.66;5061626;28;20029;-72
2023/07/29 09:55:54;;;;;;;2.53;1.95;;;;;;;24.95;32.14;93723.88;5068271;28;20036;-73
2023/07/29 09:58:26;;;;;;;5.22;1.50;;;;;;;25.02;32.22;93731.97;5068764;28;20831;-73
2023/07/29 10:00:52;;;;;;;2.88;1.35;;;;;;;24.88;32.18;93717.78;5064734;28;20028;-73
2023/07/29 10:03:27;;;;;;;2.47;1.50;;;;;;;24.91;31.90;93716.94;5069999;28;20426;-73
2023/07/29 10:05:53;;;;;;;3.28;1.80;;;;;;;25.12;31.69;93722.91;5070046;28;20032;-74
2023/07/29 10:08:23;;;;;;;3.30;2.08;;;;;;;25.27;32.94;93720.78;5065847;28;20961;-74
2023/07/29 10:10:50;;;;;;;1.75;1.50;;;;;;;25.33;32.29;93702.84;5067652;28;20586;-72
2023/07/29 10:13:16;;;;;;;3.47;1.42;;;;;;;25.33;31.15;93708.28;5067452;28;20636;-72
2023/07/29 10:15:42;;;;;;;1.85;1.23;;;;;;;25.43;31.56;93715.53;5070567;28;20020;-74
2023/07/29 10:18:07;;;;;;;3.10;1.30;;;;;;;25.47;31.07;93718.97;5064726;28;20367;-72
2023/07/29 10:20:34;;;;;;;3.15;1.30;;;;;;;25.63;30.11;93707.47;5068162;28;20043;-72
2023/07/29 10:23:00;;;;;;;2.42;1.48;;;;;;;25.79;31.35;93701.41;5066332;28;20115;-74
2023/07/29 10:25:37;;;;;;;5.07;1.50;;;;;;;25.81;32.00;93694.34;5065369;28;20031;-72
2023/07/29 10:28:07;;;;;;;3.25;1.60;;;;;;;25.61;31.13;93675.22;5066306;28;20502;-73
2023/07/29 10:30:33;;;;;;;3.50;1.63;;;;;;;25.81;31.75;93682.72;5064835;28;20029;-73
2023/07/29 10:33:02;;;;;;;2.28;1.40;;;;;;;25.81;31.32;93683.47;5071590;28;20046;-72
2023/07/29 10:35:28;;;;;;;3.90;1.60;;;;;;;25.90;30.25;93674.81;5065635;28;20031;-73
2023/07/29 10:37:55;;;;;;;2.70;1.83;;;;;;;26.04;31.48;93686.25;5068283;28;20055;-72
2023/07/29 10:40:21;;;;;;;4.78;1.50;;;;;;;26.09;30.59;93680.31;5065247;28;20392;-73
2023/07/29 10:43:25;;;;;;;5.97;1.48;;;;;;;26.09;29.33;93682.28;5063872;28;20024;-72
2023/07/29 10:45:51;;;;;;;2.83;1.15;;;;;;;26.04;29.88;93675.34;5076375;28;20111;-73
2023/07/29 10:48:34;;;;;;;1.73;1.30;;;;;;;26.02;28.92;93676.94;5067722;28;20501;-72
2023/07/29 10:51:23;;;;;;;1.70;1.17;;;;;;;26.19;28.67;93684.06;5068325;28;20494;-71
2023/07/29 10:53:52;;;;;;;1.50;1.15;;;;;;;26.22;30.44;93664.13;5069063;28;20035;-73
2023/07/29 10:56:26;;;;;;;1.48;0.90;;;;;;;26.25;30.83;93663.28;5063755;28;20090;-71
2023/07/29 10:58:51;;;;;;;2.63;1.00;;;;;;;26.17;28.97;93656.44;5070340;28;20055;-71
2023/07/29 11:01:27;;;;;;;1.48;1.10;;;;;;;26.19;28.95;93659.53;5066393;28;21002;-73
2023/07/29 11:04:21;;;;;;;2.95;1.17;;;;;;;26.09;28.96;93660.47;5068983;28;20060;-74
2023/07/29 11:07:08;;;;;;;3.10;1.27;;;;;;;26.20;28.68;93650.16;5072130;28;20062;-74
2023/07/29 11:09:39;;;;;;;1.63;1.08;;;;;;;26.18;26.64;93660.72;5070768;28;21335;-73
2023/07/29 11:12:26;;;;;;;2.05;1.10;;;;;;;26.21;27.30;93659.88;5072823;28;20103;-73
2023/07/29 11:14:51;;;;;;;2.38;0.93;;;;;;;26.17;27.12;93639.31;5070884;28;20417;-74
2023/07/29 11:17:17;;;;;;;3.30;1.20;;;;;;;26.33;28.83;93642.91;5069772;28;20047;-72
2023/07/29 11:19:44;;;;;;;4.38;1.20;;;;;;;26.45;27.36;93646.97;5070485;28;21019;-72
2023/07/29 11:22:10;;;;;;;4.72;1.15;;;;;;;26.51;28.13;93646.09;5078304;28;20028;-74
2023/07/29 11:24:35;;;;;;;4.28;1.10;;;;;;;26.50;28.16;93651.97;5072012;28;20020;-75
2023/07/29 11:27:00;;;;;;;0.85;0.70;;;;;;;26.38;26.09;93634.25;5069777;28;20454;-75
2023/07/29 11:29:26;;;;;;;3.15;0.70;;;;;;;26.43;26.80;93638.44;5069905;28;20032;-74
2023/07/29 11:31:51;;;;;;;1.27;0.98;;;;;;;26.50;27.81;93650.00;5070291;28;20700;-73